sensor_id;sensor_type;location;lat;lon;timestamp;P1;P2;P0
48155;PMS5003;35568;48.104;11.782;2023-04-05T00:01:56;11;11;
48155;PMS5003;35568;48.104;11.782;2023-04-05T00:04:23;7;7;
48155;PMS5003;35568;48.104;11.782;2023-04-05T00:06:51;8;8;
48155;PMS5003;35568;48.104;11.782;2023-04-05T00:09:18;11;11;
48155;PMS5003;35568;48.104;11.782;2023-04-05T00:11:51;9;8;
48155;PMS5003;35568;48.104;11.782;2023-04-05T00:14:18;7;7;
48155;PMS5003;35568;48.104;11.782;2023-04-05T00:16:45;9;9;
48155;PMS5003;35568;48.104;11.782;2023-04-05T00:19:12;7;7;
48155;PMS5003;35568;48.104;11.782;2023-04-05T00:21:39;9;9;
48155;PMS5003;35568;48.104;11.782;2023-04-05T00:24:06;9;9;
48155;PMS5003;35568;48.104;11.782;2023-04-05T00:26:34;12;12;
48155;PMS5003;35568;48.104;11.782;2023-04-05T00:29:01;10;8;
48155;PMS5003;35568;48.104;11.782;2023-04-05T00:31:28;9;8;
48155;PMS5003;35568;48.104;11.782;2023-04-05T00:33:55;7;7;
48155;PMS5003;35568;48.104;11.782;2023-04-05T00:36:22;7;7;
48155;PMS5003;35568;48.104;11.782;2023-04-05T00:38:49;8;7;
48155;PMS5003;35568;48.104;11.782;2023-04-05T00:41:16;7;7;
48155;PMS5003;35568;48.104;11.782;2023-04-05T00:43:43;8;7;
48155;PMS5003;35568;48.104;11.782;2023-04-05T00:46:10;8;8;
48155;PMS5003;35568;48.104;11.782;2023-04-05T00:48:37;8;8;
48155;PMS5003;35568;48.104;11.782;2023-04-05T00:51:05;7;7;
48155;PMS5003;35568;48.104;11.782;2023-04-05T00:53:31;8;8;
48155;PMS5003;35568;48.104;11.782;2023-04-05T00:55:58;8;8;
48155;PMS5003;35568;48.104;11.782;2023-04-05T00:58:27;8;7;
48155;PMS5003;35568;48.104;11.782;2023-04-05T01:00:57;8;8;
48155;PMS5003;35568;48.104;11.782;2023-04-05T01:03:28;11;8;
48155;PMS5003;35568;48.104;11.782;2023-04-05T01:05:59;7;7;
48155;PMS5003;35568;48.104;11.782;2023-04-05T01:08:38;10;10;
48155;PMS5003;35568;48.104;11.782;2023-04-05T01:11:11;10;10;
48155;PMS5003;35568;48.104;11.782;2023-04-05T01:13:40;11;11;
48155;PMS5003;35568;48.104;11.782;2023-04-05T01:16:10;10;10;
48155;PMS5003;35568;48.104;11.782;2023-04-05T01:18:37;10;8;
48155;PMS5003;35568;48.104;11.782;2023-04-05T01:21:11;8;7;
48155;PMS5003;35568;48.104;11.782;2023-04-05T01:23:59;8;8;
48155;PMS5003;35568;48.104;11.782;2023-04-05T01:26:44;8;7;
48155;PMS5003;35568;48.104;11.782;2023-04-05T01:29:26;10;10;
48155;PMS5003;35568;48.104;11.782;2023-04-05T01:32:10;12;11;
48155;PMS5003;35568;48.104;11.782;2023-04-05T01:34:45;13;12;
48155;PMS5003;35568;48.104;11.782;2023-04-05T01:37:17;10;10;
48155;PMS5003;35568;48.104;11.782;2023-04-05T01:42:00;10;10;
48155;PMS5003;35568;48.104;11.782;2023-04-05T01:44:28;7;7;
48155;PMS5003;35568;48.104;11.782;2023-04-05T01:46:55;9;9;
48155;PMS5003;35568;48.104;11.782;2023-04-05T01:49:22;8;8;
48155;PMS5003;35568;48.104;11.782;2023-04-05T01:51:49;7;6;
48155;PMS5003;35568;48.104;11.782;2023-04-05T01:54:16;8;8;
48155;PMS5003;35568;48.104;11.782;2023-04-05T01:56:43;10;8;
48155;PMS5003;35568;48.104;11.782;2023-04-05T01:59:10;9;9;
48155;PMS5003;35568;48.104;11.782;2023-04-05T02:01:37;9;9;
48155;PMS5003;35568;48.104;11.782;2023-04-05T02:04:04;7;7;
48155;PMS5003;35568;48.104;11.782;2023-04-05T02:06:31;10;10;
48155;PMS5003;35568;48.104;11.782;2023-04-05T02:08:58;10;9;
48155;PMS5003;35568;48.104;11.782;2023-04-05T02:11:25;7;6;
48155;PMS5003;35568;48.104;11.782;2023-04-05T02:13:52;11;11;
48155;PMS5003;35568;48.104;11.782;2023-04-05T02:16:19;6;6;
48155;PMS5003;35568;48.104;11.782;2023-04-05T02:18:46;11;11;
48155;PMS5003;35568;48.104;11.782;2023-04-05T02:21:14;10;10;
48155;PMS5003;35568;48.104;11.782;2023-04-05T02:23:40;11;10;
48155;PMS5003;35568;48.104;11.782;2023-04-05T02:26:08;9;9;
48155;PMS5003;35568;48.104;11.782;2023-04-05T02:28:35;9;7;
48155;PMS5003;35568;48.104;11.782;2023-04-05T02:31:01;10;10;
48155;PMS5003;35568;48.104;11.782;2023-04-05T02:33:34;13;12;
48155;PMS5003;35568;48.104;11.782;2023-04-05T02:36:03;9;9;
48155;PMS5003;35568;48.104;11.782;2023-04-05T02:38:31;11;10;
48155;PMS5003;35568;48.104;11.782;2023-04-05T02:40:58;12;11;
48155;PMS5003;35568;48.104;11.782;2023-04-05T02:43:24;12;11;
48155;PMS5003;35568;48.104;11.782;2023-04-05T02:45:51;10;10;
48155;PMS5003;35568;48.104;11.782;2023-04-05T02:48:18;10;10;
48155;PMS5003;35568;48.104;11.782;2023-04-05T02:50:46;11;11;
48155;PMS5003;35568;48.104;11.782;2023-04-05T02:53:13;12;11;
48155;PMS5003;35568;48.104;11.782;2023-04-05T02:55:40;14;13;
48155;PMS5003;35568;48.104;11.782;2023-04-05T02:58:07;11;10;
48155;PMS5003;35568;48.104;11.782;2023-04-05T03:03:00;10;9;
48155;PMS5003;35568;48.104;11.782;2023-04-05T03:05:27;11;10;
48155;PMS5003;35568;48.104;11.782;2023-04-05T03:07:54;13;12;
48155;PMS5003;35568;48.104;11.782;2023-04-05T03:10:21;12;11;
48155;PMS5003;35568;48.104;11.782;2023-04-05T03:12:48;10;9;
48155;PMS5003;35568;48.104;11.782;2023-04-05T03:15:15;10;10;
48155;PMS5003;35568;48.104;11.782;2023-04-05T03:17:42;9;9;
48155;PMS5003;35568;48.104;11.782;2023-04-05T03:20:10;11;11;
48155;PMS5003;35568;48.104;11.782;2023-04-05T03:22:38;11;10;
48155;PMS5003;35568;48.104;11.782;2023-04-05T03:25:06;11;11;
48155;PMS5003;35568;48.104;11.782;2023-04-05T03:27:33;9;9;
48155;PMS5003;35568;48.104;11.782;2023-04-05T03:30:01;13;12;
48155;PMS5003;35568;48.104;11.782;2023-04-05T03:32:28;9;9;
48155;PMS5003;35568;48.104;11.782;2023-04-05T03:34:54;10;9;
48155;PMS5003;35568;48.104;11.782;2023-04-05T03:37:21;11;11;
48155;PMS5003;35568;48.104;11.782;2023-04-05T03:39:48;14;14;
48155;PMS5003;35568;48.104;11.782;2023-04-05T03:42:16;14;14;
48155;PMS5003;35568;48.104;11.782;2023-04-05T03:44:43;12;12;
48155;PMS5003;35568;48.104;11.782;2023-04-05T03:47:10;12;12;
48155;PMS5003;35568;48.104;11.782;2023-04-05T03:49:37;14;13;
48155;PMS5003;35568;48.104;11.782;2023-04-05T03:52:04;13;13;
48155;PMS5003;35568;48.104;11.782;2023-04-05T03:54:31;12;12;
48155;PMS5003;35568;48.104;11.782;2023-04-05T03:56:58;13;13;
48155;PMS5003;35568;48.104;11.782;2023-04-05T03:59:25;11;10;
48155;PMS5003;35568;48.104;11.782;2023-04-05T04:01:51;13;13;
48155;PMS5003;35568;48.104;11.782;2023-04-05T04:04:19;13;13;
48155;PMS5003;35568;48.104;11.782;2023-04-05T04:06:46;11;10;
48155;PMS5003;35568;48.104;11.782;2023-04-05T04:09:13;13;13;
48155;PMS5003;35568;48.104;11.782;2023-04-05T04:11:39;20;19;
48155;PMS5003;35568;48.104;11.782;2023-04-05T04:14:07;21;21;
48155;PMS5003;35568;48.104;11.782;2023-04-05T04:16:33;27;25;
48155;PMS5003;35568;48.104;11.782;2023-04-05T04:19:01;20;19;
48155;PMS5003;35568;48.104;11.782;2023-04-05T04:21:28;15;15;
48155;PMS5003;35568;48.104;11.782;2023-04-05T04:23:55;48;47;
48155;PMS5003;35568;48.104;11.782;2023-04-05T04:26:22;37;32;
48155;PMS5003;35568;48.104;11.782;2023-04-05T04:28:48;20;20;
48155;PMS5003;35568;48.104;11.782;2023-04-05T04:31:15;17;15;
48155;PMS5003;35568;48.104;11.782;2023-04-05T04:33:42;19;17;
48155;PMS5003;35568;48.104;11.782;2023-04-05T04:36:09;12;12;
48155;PMS5003;35568;48.104;11.782;2023-04-05T04:38:37;17;17;
48155;PMS5003;35568;48.104;11.782;2023-04-05T04:41:05;23;23;
48155;PMS5003;35568;48.104;11.782;2023-04-05T04:43:33;38;32;
48155;PMS5003;35568;48.104;11.782;2023-04-05T04:45:59;62;55;
48155;PMS5003;35568;48.104;11.782;2023-04-05T04:48:26;46;44;
48155;PMS5003;35568;48.104;11.782;2023-04-05T04:50:53;19;19;
48155;PMS5003;35568;48.104;11.782;2023-04-05T04:53:20;17;15;
48155;PMS5003;35568;48.104;11.782;2023-04-05T04:55:47;18;17;
48155;PMS5003;35568;48.104;11.782;2023-04-05T04:58:13;19;19;
48155;PMS5003;35568;48.104;11.782;2023-04-05T05:00:41;13;13;
48155;PMS5003;35568;48.104;11.782;2023-04-05T05:03:07;12;12;
48155;PMS5003;35568;48.104;11.782;2023-04-05T05:05:35;13;13;
48155;PMS5003;35568;48.104;11.782;2023-04-05T05:08:07;12;11;
48155;PMS5003;35568;48.104;11.782;2023-04-05T05:10:34;12;10;
48155;PMS5003;35568;48.104;11.782;2023-04-05T05:13:00;13;12;
48155;PMS5003;35568;48.104;11.782;2023-04-05T05:15:27;11;11;
48155;PMS5003;35568;48.104;11.782;2023-04-05T05:17:54;13;12;
48155;PMS5003;35568;48.104;11.782;2023-04-05T05:20:21;10;10;
48155;PMS5003;35568;48.104;11.782;2023-04-05T05:22:48;14;13;
48155;PMS5003;35568;48.104;11.782;2023-04-05T05:25:14;11;11;
48155;PMS5003;35568;48.104;11.782;2023-04-05T05:27:41;12;12;
48155;PMS5003;35568;48.104;11.782;2023-04-05T05:30:09;11;11;
48155;PMS5003;35568;48.104;11.782;2023-04-05T05:32:37;10;10;
48155;PMS5003;35568;48.104;11.782;2023-04-05T05:35:06;11;11;
48155;PMS5003;35568;48.104;11.782;2023-04-05T05:37:34;12;12;
48155;PMS5003;35568;48.104;11.782;2023-04-05T05:40:01;14;13;
48155;PMS5003;35568;48.104;11.782;2023-04-05T05:42:28;11;11;
48155;PMS5003;35568;48.104;11.782;2023-04-05T05:44:55;14;13;
48155;PMS5003;35568;48.104;11.782;2023-04-05T05:47:21;13;12;
48155;PMS5003;35568;48.104;11.782;2023-04-05T05:49:49;12;12;
48155;PMS5003;35568;48.104;11.782;2023-04-05T05:52:16;11;11;
48155;PMS5003;35568;48.104;11.782;2023-04-05T05:54:42;13;12;
48155;PMS5003;35568;48.104;11.782;2023-04-05T05:57:09;12;12;
48155;PMS5003;35568;48.104;11.782;2023-04-05T05:59:36;11;11;
48155;PMS5003;35568;48.104;11.782;2023-04-05T06:02:03;13;13;
48155;PMS5003;35568;48.104;11.782;2023-04-05T06:04:30;14;13;
48155;PMS5003;35568;48.104;11.782;2023-04-05T06:06:57;14;14;
48155;PMS5003;35568;48.104;11.782;2023-04-05T06:09:24;15;14;
48155;PMS5003;35568;48.104;11.782;2023-04-05T06:11:51;13;13;
48155;PMS5003;35568;48.104;11.782;2023-04-05T06:14:18;14;14;
48155;PMS5003;35568;48.104;11.782;2023-04-05T06:16:45;14;13;
48155;PMS5003;35568;48.104;11.782;2023-04-05T06:19:12;19;18;
48155;PMS5003;35568;48.104;11.782;2023-04-05T06:21:39;21;21;
48155;PMS5003;35568;48.104;11.782;2023-04-05T06:24:07;24;22;
48155;PMS5003;35568;48.104;11.782;2023-04-05T06:26:34;16;15;
48155;PMS5003;35568;48.104;11.782;2023-04-05T06:29:01;15;15;
48155;PMS5003;35568;48.104;11.782;2023-04-05T06:31:29;18;17;
48155;PMS5003;35568;48.104;11.782;2023-04-05T06:33:57;17;16;
48155;PMS5003;35568;48.104;11.782;2023-04-05T06:36:25;16;16;
48155;PMS5003;35568;48.104;11.782;2023-04-05T06:38:52;15;15;
48155;PMS5003;35568;48.104;11.782;2023-04-05T06:41:19;14;12;
48155;PMS5003;35568;48.104;11.782;2023-04-05T06:43:47;20;19;
48155;PMS5003;35568;48.104;11.782;2023-04-05T06:46:14;12;12;
48155;PMS5003;35568;48.104;11.782;2023-04-05T06:48:41;14;14;
48155;PMS5003;35568;48.104;11.782;2023-04-05T06:51:07;13;13;
48155;PMS5003;35568;48.104;11.782;2023-04-05T06:53:35;12;12;
48155;PMS5003;35568;48.104;11.782;2023-04-05T06:56:01;17;17;
48155;PMS5003;35568;48.104;11.782;2023-04-05T06:58:29;12;11;
48155;PMS5003;35568;48.104;11.782;2023-04-05T07:00:56;15;13;
48155;PMS5003;35568;48.104;11.782;2023-04-05T07:03:22;15;14;
48155;PMS5003;35568;48.104;11.782;2023-04-05T07:05:50;14;13;
48155;PMS5003;35568;48.104;11.782;2023-04-05T07:08:17;13;13;
48155;PMS5003;35568;48.104;11.782;2023-04-05T07:10:44;12;12;
48155;PMS5003;35568;48.104;11.782;2023-04-05T07:13:11;15;14;
48155;PMS5003;35568;48.104;11.782;2023-04-05T07:15:37;13;13;
48155;PMS5003;35568;48.104;11.782;2023-04-05T07:18:05;13;13;
48155;PMS5003;35568;48.104;11.782;2023-04-05T07:20:32;14;14;
48155;PMS5003;35568;48.104;11.782;2023-04-05T07:22:59;12;12;
48155;PMS5003;35568;48.104;11.782;2023-04-05T07:25:25;10;9;
48155;PMS5003;35568;48.104;11.782;2023-04-05T07:27:53;13;13;
48155;PMS5003;35568;48.104;11.782;2023-04-05T07:30:19;10;10;
48155;PMS5003;35568;48.104;11.782;2023-04-05T07:32:46;14;13;
48155;PMS5003;35568;48.104;11.782;2023-04-05T07:35:13;14;13;
48155;PMS5003;35568;48.104;11.782;2023-04-05T07:37:40;13;13;
48155;PMS5003;35568;48.104;11.782;2023-04-05T07:40:08;14;13;
48155;PMS5003;35568;48.104;11.782;2023-04-05T07:42:37;12;12;
48155;PMS5003;35568;48.104;11.782;2023-04-05T07:45:05;13;12;
48155;PMS5003;35568;48.104;11.782;2023-04-05T07:47:33;14;14;
48155;PMS5003;35568;48.104;11.782;2023-04-05T07:49:59;12;12;
48155;PMS5003;35568;48.104;11.782;2023-04-05T07:52:27;13;13;
48155;PMS5003;35568;48.104;11.782;2023-04-05T07:54:54;10;10;
48155;PMS5003;35568;48.104;11.782;2023-04-05T07:57:21;13;12;
48155;PMS5003;35568;48.104;11.782;2023-04-05T07:59:48;11;10;
48155;PMS5003;35568;48.104;11.782;2023-04-05T08:02:15;14;14;
48155;PMS5003;35568;48.104;11.782;2023-04-05T08:04:43;14;14;
48155;PMS5003;35568;48.104;11.782;2023-04-05T08:07:10;13;13;
48155;PMS5003;35568;48.104;11.782;2023-04-05T08:09:37;11;11;
48155;PMS5003;35568;48.104;11.782;2023-04-05T08:12:04;13;12;
48155;PMS5003;35568;48.104;11.782;2023-04-05T08:14:32;12;12;
48155;PMS5003;35568;48.104;11.782;2023-04-05T08:16:59;12;12;
48155;PMS5003;35568;48.104;11.782;2023-04-05T08:19:25;15;13;
48155;PMS5003;35568;48.104;11.782;2023-04-05T08:21:52;11;11;
48155;PMS5003;35568;48.104;11.782;2023-04-05T08:24:19;14;14;
48155;PMS5003;35568;48.104;11.782;2023-04-05T08:26:46;13;12;
48155;PMS5003;35568;48.104;11.782;2023-04-05T08:29:13;10;10;
48155;PMS5003;35568;48.104;11.782;2023-04-05T08:31:40;11;11;
48155;PMS5003;35568;48.104;11.782;2023-04-05T08:34:07;12;12;
48155;PMS5003;35568;48.104;11.782;2023-04-05T08:36:34;11;10;
48155;PMS5003;35568;48.104;11.782;2023-04-05T08:39:01;12;11;
48155;PMS5003;35568;48.104;11.782;2023-04-05T08:41:30;12;12;
48155;PMS5003;35568;48.104;11.782;2023-04-05T08:44:01;15;14;
48155;PMS5003;35568;48.104;11.782;2023-04-05T08:46:30;10;9;
48155;PMS5003;35568;48.104;11.782;2023-04-05T08:48:58;12;11;
48155;PMS5003;35568;48.104;11.782;2023-04-05T08:51:29;11;10;
48155;PMS5003;35568;48.104;11.782;2023-04-05T08:53:56;11;11;
48155;PMS5003;35568;48.104;11.782;2023-04-05T08:56:25;8;8;
48155;PMS5003;35568;48.104;11.782;2023-04-05T08:58:57;14;12;
48155;PMS5003;35568;48.104;11.782;2023-04-05T09:01:28;7;7;
48155;PMS5003;35568;48.104;11.782;2023-04-05T09:04:36;12;10;
48155;PMS5003;35568;48.104;11.782;2023-04-05T09:07:05;7;7;
48155;PMS5003;35568;48.104;11.782;2023-04-05T09:09:34;11;11;
48155;PMS5003;35568;48.104;11.782;2023-04-05T09:12:02;10;10;
48155;PMS5003;35568;48.104;11.782;2023-04-05T09:14:31;8;8;
48155;PMS5003;35568;48.104;11.782;2023-04-05T09:17:00;10;9;
48155;PMS5003;35568;48.104;11.782;2023-04-05T09:19:33;12;12;
48155;PMS5003;35568;48.104;11.782;2023-04-05T09:22:01;10;8;
48155;PMS5003;35568;48.104;11.782;2023-04-05T09:24:30;11;11;
48155;PMS5003;35568;48.104;11.782;2023-04-05T09:27:05;9;9;
48155;PMS5003;35568;48.104;11.782;2023-04-05T09:29:36;11;11;
48155;PMS5003;35568;48.104;11.782;2023-04-05T09:32:09;11;11;
48155;PMS5003;35568;48.104;11.782;2023-04-05T09:34:38;11;11;
48155;PMS5003;35568;48.104;11.782;2023-04-05T09:37:11;12;9;
48155;PMS5003;35568;48.104;11.782;2023-04-05T09:39:39;10;10;
48155;PMS5003;35568;48.104;11.782;2023-04-05T09:42:07;11;10;
48155;PMS5003;35568;48.104;11.782;2023-04-05T09:44:52;8;7;
48155;PMS5003;35568;48.104;11.782;2023-04-05T09:47:21;9;8;
48155;PMS5003;35568;48.104;11.782;2023-04-05T09:49:49;9;8;
48155;PMS5003;35568;48.104;11.782;2023-04-05T09:52:17;7;7;
48155;PMS5003;35568;48.104;11.782;2023-04-05T09:54:46;8;7;
48155;PMS5003;35568;48.104;11.782;2023-04-05T09:57:14;7;7;
48155;PMS5003;35568;48.104;11.782;2023-04-05T09:59:41;10;10;
48155;PMS5003;35568;48.104;11.782;2023-04-05T10:02:09;10;10;
48155;PMS5003;35568;48.104;11.782;2023-04-05T10:04:38;6;6;
48155;PMS5003;35568;48.104;11.782;2023-04-05T10:07:05;8;8;
48155;PMS5003;35568;48.104;11.782;2023-04-05T10:09:34;8;8;
48155;PMS5003;35568;48.104;11.782;2023-04-05T10:12:01;6;6;
48155;PMS5003;35568;48.104;11.782;2023-04-05T10:14:30;8;8;
48155;PMS5003;35568;48.104;11.782;2023-04-05T10:16:59;9;9;
48155;PMS5003;35568;48.104;11.782;2023-04-05T10:19:36;10;10;
48155;PMS5003;35568;48.104;11.782;2023-04-05T10:22:14;9;9;
48155;PMS5003;35568;48.104;11.782;2023-04-05T10:24:48;7;7;
48155;PMS5003;35568;48.104;11.782;2023-04-05T10:27:20;8;8;
48155;PMS5003;35568;48.104;11.782;2023-04-05T10:29:56;9;9;
48155;PMS5003;35568;48.104;11.782;2023-04-05T10:32:34;10;9;
48155;PMS5003;35568;48.104;11.782;2023-04-05T10:35:14;9;8;
48155;PMS5003;35568;48.104;11.782;2023-04-05T10:37:49;8;7;
48155;PMS5003;35568;48.104;11.782;2023-04-05T10:40:26;8;8;
48155;PMS5003;35568;48.104;11.782;2023-04-05T10:42:58;9;9;
48155;PMS5003;35568;48.104;11.782;2023-04-05T10:45:25;11;10;
48155;PMS5003;35568;48.104;11.782;2023-04-05T10:47:53;9;9;
48155;PMS5003;35568;48.104;11.782;2023-04-05T10:50:24;9;9;
48155;PMS5003;35568;48.104;11.782;2023-04-05T10:52:51;8;7;
48155;PMS5003;35568;48.104;11.782;2023-04-05T10:55:19;10;9;
48155;PMS5003;35568;48.104;11.782;2023-04-05T10:57:46;9;9;
48155;PMS5003;35568;48.104;11.782;2023-04-05T11:00:15;7;7;
48155;PMS5003;35568;48.104;11.782;2023-04-05T11:02:44;11;11;
48155;PMS5003;35568;48.104;11.782;2023-04-05T11:05:29;10;10;
48155;PMS5003;35568;48.104;11.782;2023-04-05T11:07:59;9;9;
48155;PMS5003;35568;48.104;11.782;2023-04-05T11:10:29;9;9;
48155;PMS5003;35568;48.104;11.782;2023-04-05T11:13:04;9;9;
48155;PMS5003;35568;48.104;11.782;2023-04-05T11:15:33;8;8;
48155;PMS5003;35568;48.104;11.782;2023-04-05T11:18:01;10;10;
48155;PMS5003;35568;48.104;11.782;2023-04-05T11:20:39;9;9;
48155;PMS5003;35568;48.104;11.782;2023-04-05T11:23:07;9;9;
48155;PMS5003;35568;48.104;11.782;2023-04-05T11:25:36;10;10;
48155;PMS5003;35568;48.104;11.782;2023-04-05T11:28:03;11;10;
48155;PMS5003;35568;48.104;11.782;2023-04-05T11:30:46;10;9;
48155;PMS5003;35568;48.104;11.782;2023-04-05T11:34:14;9;9;
48155;PMS5003;35568;48.104;11.782;2023-04-05T11:36:49;13;13;
48155;PMS5003;35568;48.104;11.782;2023-04-05T11:39:24;12;11;
48155;PMS5003;35568;48.104;11.782;2023-04-05T11:41:52;14;12;
48155;PMS5003;35568;48.104;11.782;2023-04-05T11:44:22;11;11;
48155;PMS5003;35568;48.104;11.782;2023-04-05T11:46:49;10;9;
48155;PMS5003;35568;48.104;11.782;2023-04-05T11:49:17;10;10;
48155;PMS5003;35568;48.104;11.782;2023-04-05T11:51:46;8;8;
48155;PMS5003;35568;48.104;11.782;2023-04-05T11:54:26;10;10;
48155;PMS5003;35568;48.104;11.782;2023-04-05T11:56:54;10;10;
48155;PMS5003;35568;48.104;11.782;2023-04-05T11:59:26;11;11;
48155;PMS5003;35568;48.104;11.782;2023-04-05T12:01:57;8;8;
48155;PMS5003;35568;48.104;11.782;2023-04-05T12:04:24;9;9;
48155;PMS5003;35568;48.104;11.782;2023-04-05T12:07:07;11;9;
48155;PMS5003;35568;48.104;11.782;2023-04-05T12:10:09;12;11;
48155;PMS5003;35568;48.104;11.782;2023-04-05T12:12:38;11;11;
48155;PMS5003;35568;48.104;11.782;2023-04-05T12:15:07;10;10;
48155;PMS5003;35568;48.104;11.782;2023-04-05T12:17:36;10;10;
48155;PMS5003;35568;48.104;11.782;2023-04-05T12:20:05;14;13;
48155;PMS5003;35568;48.104;11.782;2023-04-05T12:22:33;11;10;
48155;PMS5003;35568;48.104;11.782;2023-04-05T12:25:02;10;10;
48155;PMS5003;35568;48.104;11.782;2023-04-05T12:27:30;12;10;
48155;PMS5003;35568;48.104;11.782;2023-04-05T12:30:06;10;10;
48155;PMS5003;35568;48.104;11.782;2023-04-05T12:32:35;10;10;
48155;PMS5003;35568;48.104;11.782;2023-04-05T12:35:06;8;8;
48155;PMS5003;35568;48.104;11.782;2023-04-05T12:37:36;8;8;
48155;PMS5003;35568;48.104;11.782;2023-04-05T12:40:05;11;11;
48155;PMS5003;35568;48.104;11.782;2023-04-05T12:42:34;8;8;
48155;PMS5003;35568;48.104;11.782;2023-04-05T12:45:02;11;11;
48155;PMS5003;35568;48.104;11.782;2023-04-05T12:47:31;9;9;
48155;PMS5003;35568;48.104;11.782;2023-04-05T12:50:08;9;9;
48155;PMS5003;35568;48.104;11.782;2023-04-05T12:52:36;8;8;
48155;PMS5003;35568;48.104;11.782;2023-04-05T12:55:03;10;9;
48155;PMS5003;35568;48.104;11.782;2023-04-05T12:57:39;12;12;
48155;PMS5003;35568;48.104;11.782;2023-04-05T13:00:07;12;12;
48155;PMS5003;35568;48.104;11.782;2023-04-05T13:02:35;12;11;
48155;PMS5003;35568;48.104;11.782;2023-04-05T13:05:02;12;12;
48155;PMS5003;35568;48.104;11.782;2023-04-05T13:07:28;10;10;
48155;PMS5003;35568;48.104;11.782;2023-04-05T13:09:56;11;10;
48155;PMS5003;35568;48.104;11.782;2023-04-05T13:12:23;12;12;
48155;PMS5003;35568;48.104;11.782;2023-04-05T13:14:51;14;12;
48155;PMS5003;35568;48.104;11.782;2023-04-05T13:17:18;11;10;
48155;PMS5003;35568;48.104;11.782;2023-04-05T13:19:44;11;11;
48155;PMS5003;35568;48.104;11.782;2023-04-05T13:22:11;11;10;
48155;PMS5003;35568;48.104;11.782;2023-04-05T13:24:38;9;9;
48155;PMS5003;35568;48.104;11.782;2023-04-05T13:27:05;12;11;
48155;PMS5003;35568;48.104;11.782;2023-04-05T13:29:32;11;11;
48155;PMS5003;35568;48.104;11.782;2023-04-05T13:31:58;10;9;
48155;PMS5003;35568;48.104;11.782;2023-04-05T13:34:25;13;12;
48155;PMS5003;35568;48.104;11.782;2023-04-05T13:36:52;8;8;
48155;PMS5003;35568;48.104;11.782;2023-04-05T13:39:19;10;10;
48155;PMS5003;35568;48.104;11.782;2023-04-05T13:41:46;9;9;
48155;PMS5003;35568;48.104;11.782;2023-04-05T13:44:13;11;10;
48155;PMS5003;35568;48.104;11.782;2023-04-05T13:46:39;10;10;
48155;PMS5003;35568;48.104;11.782;2023-04-05T13:49:06;12;12;
48155;PMS5003;35568;48.104;11.782;2023-04-05T13:51:34;12;12;
48155;PMS5003;35568;48.104;11.782;2023-04-05T13:54:01;11;9;
48155;PMS5003;35568;48.104;11.782;2023-04-05T13:56:28;8;8;
48155;PMS5003;35568;48.104;11.782;2023-04-05T13:58:54;11;11;
48155;PMS5003;35568;48.104;11.782;2023-04-05T14:01:21;10;9;
48155;PMS5003;35568;48.104;11.782;2023-04-05T14:03:48;11;10;
48155;PMS5003;35568;48.104;11.782;2023-04-05T14:06:15;12;11;
48155;PMS5003;35568;48.104;11.782;2023-04-05T14:08:42;13;11;
48155;PMS5003;35568;48.104;11.782;2023-04-05T14:11:09;9;9;
48155;PMS5003;35568;48.104;11.782;2023-04-05T14:13:36;9;9;
48155;PMS5003;35568;48.104;11.782;2023-04-05T14:16:04;13;12;
48155;PMS5003;35568;48.104;11.782;2023-04-05T14:18:31;11;11;
48155;PMS5003;35568;48.104;11.782;2023-04-05T14:20:59;11;11;
48155;PMS5003;35568;48.104;11.782;2023-04-05T14:23:26;13;12;
48155;PMS5003;35568;48.104;11.782;2023-04-05T14:25:52;11;11;
48155;PMS5003;35568;48.104;11.782;2023-04-05T14:28:20;11;10;
48155;PMS5003;35568;48.104;11.782;2023-04-05T14:30:47;10;10;
48155;PMS5003;35568;48.104;11.782;2023-04-05T14:33:15;12;11;
48155;PMS5003;35568;48.104;11.782;2023-04-05T14:35:42;17;13;
48155;PMS5003;35568;48.104;11.782;2023-04-05T14:38:10;14;13;
48155;PMS5003;35568;48.104;11.782;2023-04-05T14:40:36;13;13;
48155;PMS5003;35568;48.104;11.782;2023-04-05T14:43:04;14;13;
48155;PMS5003;35568;48.104;11.782;2023-04-05T14:45:31;13;12;
48155;PMS5003;35568;48.104;11.782;2023-04-05T14:47:57;14;13;
48155;PMS5003;35568;48.104;11.782;2023-04-05T14:50:24;14;13;
48155;PMS5003;35568;48.104;11.782;2023-04-05T14:52:52;12;12;
48155;PMS5003;35568;48.104;11.782;2023-04-05T14:55:19;15;13;
48155;PMS5003;35568;48.104;11.782;2023-04-05T14:57:46;11;11;
48155;PMS5003;35568;48.104;11.782;2023-04-05T15:00:14;13;12;
48155;PMS5003;35568;48.104;11.782;2023-04-05T15:02:42;13;13;
48155;PMS5003;35568;48.104;11.782;2023-04-05T15:05:11;13;13;
48155;PMS5003;35568;48.104;11.782;2023-04-05T15:07:39;11;11;
48155;PMS5003;35568;48.104;11.782;2023-04-05T15:10:11;12;12;
48155;PMS5003;35568;48.104;11.782;2023-04-05T15:12:41;17;16;
48155;PMS5003;35568;48.104;11.782;2023-04-05T15:15:08;11;11;
48155;PMS5003;35568;48.104;11.782;2023-04-05T15:17:36;13;12;
48155;PMS5003;35568;48.104;11.782;2023-04-05T15:20:03;13;13;
48155;PMS5003;35568;48.104;11.782;2023-04-05T15:22:30;14;14;
48155;PMS5003;35568;48.104;11.782;2023-04-05T15:24:57;13;13;
48155;PMS5003;35568;48.104;11.782;2023-04-05T15:27:24;15;13;
48155;PMS5003;35568;48.104;11.782;2023-04-05T15:29:50;17;17;
48155;PMS5003;35568;48.104;11.782;2023-04-05T15:32:17;13;12;
48155;PMS5003;35568;48.104;11.782;2023-04-05T15:34:44;11;10;
48155;PMS5003;35568;48.104;11.782;2023-04-05T15:37:16;14;12;
48155;PMS5003;35568;48.104;11.782;2023-04-05T15:39:43;22;21;
48155;PMS5003;35568;48.104;11.782;2023-04-05T15:42:10;12;11;
48155;PMS5003;35568;48.104;11.782;2023-04-05T15:44:37;11;11;
48155;PMS5003;35568;48.104;11.782;2023-04-05T15:47:04;10;10;
48155;PMS5003;35568;48.104;11.782;2023-04-05T15:49:31;13;13;
48155;PMS5003;35568;48.104;11.782;2023-04-05T15:51:57;12;12;
48155;PMS5003;35568;48.104;11.782;2023-04-05T15:54:24;12;11;
48155;PMS5003;35568;48.104;11.782;2023-04-05T15:56:51;12;12;
48155;PMS5003;35568;48.104;11.782;2023-04-05T15:59:17;11;11;
48155;PMS5003;35568;48.104;11.782;2023-04-05T16:01:44;12;11;
48155;PMS5003;35568;48.104;11.782;2023-04-05T16:04:12;14;14;
48155;PMS5003;35568;48.104;11.782;2023-04-05T16:06:38;13;13;
48155;PMS5003;35568;48.104;11.782;2023-04-05T16:09:05;14;13;
48155;PMS5003;35568;48.104;11.782;2023-04-05T16:11:32;13;12;
48155;PMS5003;35568;48.104;11.782;2023-04-05T16:13:59;12;11;
48155;PMS5003;35568;48.104;11.782;2023-04-05T16:16:27;15;15;
48155;PMS5003;35568;48.104;11.782;2023-04-05T16:18:54;13;13;
48155;PMS5003;35568;48.104;11.782;2023-04-05T16:21:21;13;12;
48155;PMS5003;35568;48.104;11.782;2023-04-05T16:23:47;10;10;